createdAt,value
2023-03-08T00:01:34.607Z,7.10
2023-03-08T00:04:04.804Z,5.35
2023-03-08T00:06:34.493Z,5.55
2023-03-08T00:09:04.710Z,5.05
2023-03-08T00:11:31.671Z,4.30
2023-03-08T00:13:58.827Z,4.88
2023-03-08T00:16:28.355Z,5.22
2023-03-08T00:18:55.367Z,6.55
2023-03-08T00:21:25.176Z,5.20
2023-03-08T00:23:59.519Z,4.63
2023-03-08T00:26:31.412Z,4.18
2023-03-08T00:28:58.284Z,4.22
2023-03-08T00:31:26.955Z,4.78
2023-03-08T00:33:58.159Z,5.40
2023-03-08T00:36:25.159Z,3.85
2023-03-08T00:38:52.655Z,5.53
2023-03-08T00:41:20.260Z,5.25
2023-03-08T00:43:47.065Z,5.15
2023-03-08T00:46:17.404Z,4.93
2023-03-08T00:48:44.308Z,5.30
2023-03-08T00:51:16.962Z,4.68
2023-03-08T00:53:46.798Z,4.78
2023-03-08T00:56:14.481Z,4.57
2023-03-08T00:58:42.782Z,4.53
2023-03-08T01:01:17.489Z,4.65
2023-03-08T01:03:44.664Z,8.18
2023-03-08T01:06:16.055Z,4.28
2023-03-08T01:08:46.480Z,4.57
2023-03-08T01:11:29.398Z,4.90
2023-03-08T01:13:57.078Z,5.22
2023-03-08T01:16:32.408Z,5.70
2023-03-08T01:19:01.356Z,5.18
2023-03-08T01:21:31.525Z,5.43
2023-03-08T01:23:59.030Z,5.82
2023-03-08T01:26:27.893Z,5.03
2023-03-08T01:28:55.357Z,4.20
2023-03-08T01:31:30.055Z,4.40
2023-03-08T01:33:58.331Z,4.95
2023-03-08T01:36:28.331Z,4.80
2023-03-08T01:38:55.616Z,4.90
2023-03-08T01:41:28.769Z,4.80
2023-03-08T01:43:56.648Z,4.68
2023-03-08T01:46:58.293Z,4.93
2023-03-08T01:49:32.398Z,5.32
2023-03-08T01:52:11.252Z,5.70
2023-03-08T01:55:00.695Z,5.13
2023-03-08T01:57:53.610Z,4.88
2023-03-08T02:00:26.947Z,5.72
2023-03-08T02:03:14.085Z,5.80
2023-03-08T02:05:44.709Z,5.15
2023-03-08T02:08:11.816Z,5.45
2023-03-08T02:10:43.160Z,5.90
2023-03-08T02:13:12.478Z,5.47
2023-03-08T02:15:45.168Z,5.68
2023-03-08T02:18:11.995Z,5.65
2023-03-08T02:23:30.663Z,5.53
2023-03-08T02:26:05.741Z,5.13
2023-03-08T02:28:33.508Z,5.60
2023-03-08T02:31:00.336Z,5.47
2023-03-08T02:33:30.881Z,5.13
2023-03-08T02:35:57.856Z,6.95
2023-03-08T02:38:24.524Z,5.20
2023-03-08T02:40:54.788Z,6.22
2023-03-08T02:43:24.330Z,6.78
2023-03-08T02:45:51.472Z,6.28
2023-03-08T02:48:20.061Z,7.72
2023-03-08T02:50:46.790Z,6.53
2023-03-08T02:53:13.501Z,5.97
2023-03-08T02:55:52.434Z,6.90
2023-03-08T02:58:19.248Z,7.63
2023-03-08T03:00:46.039Z,6.43
2023-03-08T03:03:13.050Z,6.50
2023-03-08T03:05:57.745Z,6.28
2023-03-08T03:08:31.655Z,7.32
2023-03-08T03:11:01.409Z,7.75
2023-03-08T03:13:30.679Z,6.93
2023-03-08T03:15:57.428Z,6.82
2023-03-08T03:18:24.194Z,7.55
2023-03-08T03:20:53.632Z,8.63
2023-03-08T03:23:20.645Z,9.30
2023-03-08T03:25:47.306Z,10.63
2023-03-08T03:28:14.060Z,10.20
2023-03-08T03:30:43.948Z,13.88
2023-03-08T03:33:16.850Z,13.85
2023-03-08T03:35:49.464Z,14.40
2023-03-08T03:38:19.564Z,13.68
2023-03-08T03:40:46.282Z,14.15
2023-03-08T03:43:12.937Z,14.43
2023-03-08T03:45:46.836Z,12.68
2023-03-08T03:48:17.217Z,14.65
2023-03-08T03:50:43.802Z,13.02
2023-03-08T03:53:13.357Z,13.60
2023-03-08T03:55:42.311Z,13.20
2023-03-08T03:58:09.163Z,11.63
2023-03-08T04:00:35.871Z,11.25
2023-03-08T04:03:02.664Z,12.65
2023-03-08T04:05:29.337Z,12.82
2023-03-08T04:07:58.249Z,12.77
2023-03-08T04:10:25.007Z,11.55
2023-03-08T04:12:55.090Z,12.95
2023-03-08T04:15:21.710Z,13.43
2023-03-08T04:17:48.363Z,11.77
2023-03-08T04:20:15.174Z,12.25
2023-03-08T04:22:44.941Z,10.90
2023-03-08T04:25:11.598Z,12.75
2023-03-08T04:27:38.377Z,11.55
2023-03-08T04:30:06.245Z,12.10
2023-03-08T04:32:33.356Z,9.65
2023-03-08T04:35:00.193Z,10.10
2023-03-08T04:37:26.969Z,9.88
2023-03-08T04:39:53.700Z,9.73
2023-03-08T04:42:20.401Z,10.52
2023-03-08T04:44:47.062Z,11.30
2023-03-08T04:47:13.944Z,10.15
2023-03-08T04:49:43.632Z,9.10
2023-03-08T04:52:10.352Z,9.63
2023-03-08T04:54:37.029Z,9.13
2023-03-08T04:57:04.045Z,7.53
2023-03-08T04:59:30.819Z,8.02
2023-03-08T05:02:00.129Z,7.88
2023-03-08T05:04:29.835Z,7.30
2023-03-08T05:06:56.511Z,7.75
2023-03-08T05:09:23.506Z,8.15
2023-03-08T05:11:52.029Z,10.00
2023-03-08T05:14:18.663Z,9.40
2023-03-08T05:16:45.492Z,8.32
2023-03-08T05:19:12.274Z,6.68
2023-03-08T05:21:40.327Z,7.18
2023-03-08T05:24:07.423Z,9.48
2023-03-08T05:26:34.064Z,7.50
2023-03-08T05:29:08.396Z,8.32
2023-03-08T05:31:42.438Z,9.38
2023-03-08T05:34:15.950Z,7.82
2023-03-08T05:36:45.547Z,9.15
2023-03-08T05:39:12.564Z,8.73
2023-03-08T05:41:48.369Z,8.13
2023-03-08T05:44:18.083Z,8.85
2023-03-08T05:46:52.024Z,9.55
2023-03-08T05:49:22.913Z,10.02
2023-03-08T05:51:49.656Z,10.25
2023-03-08T05:54:19.440Z,9.77
2023-03-08T05:56:46.021Z,11.57
2023-03-08T05:59:12.728Z,11.75
2023-03-08T06:01:43.738Z,10.40
2023-03-08T06:04:10.509Z,10.90
2023-03-08T06:06:37.163Z,11.57
2023-03-08T06:09:04.367Z,11.88
2023-03-08T06:11:31.033Z,10.98
2023-03-08T06:13:57.823Z,11.85
2023-03-08T07:18:54.377Z,17.95
2023-03-08T07:21:24.304Z,17.17
2023-03-08T07:23:57.068Z,16.42
2023-03-08T07:26:23.812Z,16.60
2023-03-08T07:28:51.467Z,15.25
2023-03-08T07:31:18.651Z,14.13
2023-03-08T07:33:45.619Z,13.25
2023-03-08T07:36:12.857Z,14.57
2023-03-08T07:38:44.240Z,11.25
2023-03-08T07:41:10.968Z,12.02
2023-03-08T07:43:43.302Z,11.80
2023-03-08T07:46:10.053Z,12.10
2023-03-08T07:48:36.881Z,12.30
2023-03-08T07:51:12.248Z,11.77
2023-03-08T07:56:20.108Z,9.80
2023-03-08T07:58:46.852Z,10.27
2023-03-08T08:01:15.013Z,10.93
2023-03-08T08:03:51.193Z,11.02
2023-03-08T08:06:17.866Z,10.70
2023-03-08T08:08:44.654Z,10.32
2023-03-08T08:11:19.914Z,10.75
2023-03-08T08:13:47.125Z,10.43
2023-03-08T08:16:21.600Z,10.50
2023-03-08T08:18:48.273Z,10.27
2023-03-08T08:21:16.538Z,11.38
2023-03-08T08:23:44.258Z,9.52
2023-03-08T08:26:18.717Z,10.25
2023-03-08T08:28:51.932Z,10.55
2023-03-08T08:31:30.922Z,11.27
2023-03-08T08:34:00.444Z,10.52
2023-03-08T08:36:28.167Z,12.30
2023-03-08T08:38:57.978Z,12.98
2023-03-08T08:41:25.093Z,11.05
2023-03-08T08:43:59.957Z,11.48
2023-03-08T08:46:27.977Z,9.85
2023-03-08T08:48:56.274Z,10.68
2023-03-08T08:51:25.398Z,11.48
2023-03-08T08:53:53.564Z,13.98
2023-03-08T08:56:28.522Z,15.00
2023-03-08T08:59:02.304Z,14.25
2023-03-08T09:01:34.397Z,12.57
2023-03-08T09:04:06.813Z,17.38
2023-03-08T09:06:33.691Z,12.00
2023-03-08T09:09:06.748Z,11.88
2023-03-08T09:11:39.833Z,12.80
2023-03-08T09:14:11.870Z,12.40
2023-03-08T09:16:38.633Z,13.57
2023-03-08T09:19:08.742Z,13.82
2023-03-08T09:21:36.312Z,13.02
2023-03-08T09:24:10.491Z,13.98
2023-03-08T09:26:37.406Z,11.88
2023-03-08T09:29:08.117Z,11.90
2023-03-08T09:31:38.136Z,11.68
2023-03-08T09:34:12.543Z,12.23
2023-03-08T09:36:46.246Z,10.73
2023-03-08T09:39:16.778Z,10.10
2023-03-08T09:42:20.475Z,9.05
2023-03-08T09:45:12.506Z,8.48
2023-03-08T09:48:19.653Z,9.65
2023-03-08T09:50:52.186Z,9.15
2023-03-08T09:53:59.950Z,8.77
2023-03-08T09:56:46.718Z,7.38
2023-03-08T09:59:33.476Z,7.80
2023-03-08T10:03:13.974Z,6.97
2023-03-08T10:06:04.334Z,7.32
2023-03-08T10:09:09.321Z,7.65
2023-03-08T10:12:12.985Z,8.02
2023-03-08T10:14:50.227Z,7.45
2023-03-08T10:17:38.999Z,7.45
2023-03-08T10:20:25.378Z,7.90
2023-03-08T10:23:21.292Z,6.65
2023-03-08T10:25:50.837Z,6.78
2023-03-08T10:28:22.226Z,6.88
2023-03-08T10:31:00.776Z,6.80
2023-03-08T10:33:36.324Z,7.30
2023-03-08T10:36:19.939Z,6.97
2023-03-08T10:39:17.525Z,7.07
2023-03-08T10:41:59.624Z,6.47
2023-03-08T10:45:00.396Z,8.65
2023-03-08T10:47:36.156Z,6.88
2023-03-08T10:50:22.678Z,7.45
2023-03-08T10:52:51.272Z,7.70
2023-03-08T10:55:26.593Z,7.45
2023-03-08T10:58:01.187Z,7.78
2023-03-08T11:00:43.030Z,8.10
2023-03-08T11:03:26.542Z,7.57
2023-03-08T11:05:56.100Z,7.65
2023-03-08T11:08:55.142Z,6.90
2023-03-08T11:11:22.451Z,8.10
2023-03-08T11:13:53.320Z,7.18
2023-03-08T11:16:54.063Z,7.47
2023-03-08T11:20:14.239Z,7.03
2023-03-08T11:23:35.570Z,6.88
2023-03-08T11:26:37.695Z,8.00
2023-03-08T11:29:33.333Z,9.73
2023-03-08T11:32:16.938Z,7.07
2023-03-08T11:35:25.311Z,6.80
2023-03-08T11:38:14.722Z,6.53
2023-03-08T11:41:11.581Z,7.55
2023-03-08T11:44:18.748Z,7.35
2023-03-08T11:47:34.542Z,6.93
2023-03-08T11:50:25.304Z,7.70
2023-03-08T11:53:27.925Z,6.65
2023-03-08T11:56:30.069Z,7.55
2023-03-08T11:59:19.369Z,7.20
2023-03-08T12:02:02.492Z,6.85
2023-03-08T12:05:10.287Z,6.80
2023-03-08T12:07:58.252Z,6.82
2023-03-08T12:10:58.355Z,7.22
2023-03-08T12:13:48.523Z,6.95
2023-03-08T12:16:44.893Z,6.15
2023-03-08T12:19:51.517Z,5.78
2023-03-08T12:22:51.568Z,5.55
2023-03-08T12:25:34.997Z,5.45
2023-03-08T12:28:24.408Z,4.82
2023-03-08T12:31:28.591Z,5.55
2023-03-08T12:33:59.366Z,5.43
2023-03-08T12:36:43.937Z,5.63
2023-03-08T12:42:16.750Z,4.90
2023-03-08T12:44:46.964Z,5.55
2023-03-08T12:47:13.757Z,5.25
2023-03-08T12:49:51.014Z,5.07
2023-03-08T12:52:17.685Z,5.10
2023-03-08T12:54:59.288Z,5.40
2023-03-08T12:57:36.347Z,6.13
2023-03-08T13:00:36.186Z,5.43
2023-03-08T13:03:41.937Z,5.53
2023-03-08T13:06:50.398Z,5.07
2023-03-08T13:09:46.896Z,5.55
2023-03-08T13:12:16.290Z,5.30
2023-03-08T13:15:19.524Z,6.00
2023-03-08T13:18:03.998Z,5.07
2023-03-08T13:21:04.454Z,5.28
2023-03-08T13:24:19.416Z,7.28
2023-03-08T13:27:23.788Z,7.40
2023-03-08T13:29:51.517Z,6.43
2023-03-08T13:32:29.734Z,6.55
2023-03-08T13:35:04.847Z,5.80
2023-03-08T13:37:32.364Z,5.32
2023-03-08T13:40:00.968Z,5.90
2023-03-08T13:42:29.587Z,5.75
2023-03-08T13:45:34.693Z,5.25
2023-03-08T13:48:09.129Z,4.57
2023-03-08T13:50:46.879Z,5.03
2023-03-08T13:53:29.212Z,5.10
2023-03-08T13:56:04.389Z,4.78
2023-03-08T13:58:54.525Z,5.30
2023-03-08T14:01:26.110Z,4.85
2023-03-08T14:03:55.708Z,7.13
2023-03-08T14:06:33.753Z,5.47
2023-03-08T14:09:03.532Z,5.28
2023-03-08T14:11:38.284Z,5.00
2023-03-08T14:14:18.334Z,7.07
2023-03-08T14:16:47.328Z,6.05
2023-03-08T14:19:29.805Z,5.53
2023-03-08T14:22:03.389Z,5.93
2023-03-08T14:24:35.966Z,6.75
2023-03-08T14:27:45.368Z,7.03
2023-03-08T14:30:24.131Z,6.38
2023-03-08T14:33:22.039Z,6.15
2023-03-08T14:36:01.773Z,6.47
2023-03-08T14:38:36.398Z,6.20
2023-03-08T14:41:14.112Z,4.63
2023-03-08T14:43:51.382Z,4.47
2023-03-08T14:46:21.929Z,4.57
2023-03-08T14:49:00.822Z,5.00
2023-03-08T14:51:44.004Z,4.18
2023-03-08T14:54:36.781Z,3.45
2023-03-08T14:57:22.802Z,4.80
2023-03-08T14:59:51.388Z,4.55
2023-03-08T15:02:19.168Z,4.53
2023-03-08T15:04:46.990Z,4.60
2023-03-08T15:07:22.250Z,4.75
2023-03-08T15:09:52.036Z,7.15
2023-03-08T15:12:18.652Z,5.40
2023-03-08T15:14:48.435Z,7.20
2023-03-08T15:17:17.998Z,5.22
2023-03-08T15:19:47.165Z,5.05
2023-03-08T15:22:17.410Z,5.38
2023-03-08T15:24:44.236Z,4.35
2023-03-08T15:27:18.282Z,5.85
2023-03-08T15:29:45.399Z,5.47
2023-03-08T15:32:12.044Z,4.57
2023-03-08T15:34:47.968Z,5.47
2023-03-08T15:37:17.648Z,5.00
2023-03-08T15:39:44.282Z,5.00
2023-03-08T15:42:11.166Z,5.45
2023-03-08T15:44:38.306Z,4.50
2023-03-08T15:47:05.294Z,4.97
2023-03-08T15:49:31.957Z,4.97
2023-03-08T15:52:05.148Z,5.22
2023-03-08T15:54:32.596Z,5.75
2023-03-08T15:56:59.388Z,5.80
2023-03-08T15:59:27.150Z,4.65
2023-03-08T16:01:53.917Z,5.15
2023-03-08T16:07:05.521Z,6.13
2023-03-08T16:12:17.482Z,5.28
2023-03-08T16:26:05.436Z,5.57
2023-03-08T16:50:59.342Z,6.68
2023-03-08T17:37:11.786Z,8.30
2023-03-08T17:53:13.102Z,13.05
2023-03-08T17:55:44.734Z,13.95
2023-03-08T17:58:21.079Z,12.52
2023-03-08T18:00:47.933Z,14.93
2023-03-08T18:19:51.702Z,14.73
2023-03-08T18:33:08.610Z,55.47
2023-03-08T18:54:49.825Z,15.27
2023-03-08T18:57:16.577Z,14.85
2023-03-08T19:07:46.668Z,13.23
2023-03-08T19:10:14.844Z,23.25
2023-03-08T19:15:25.921Z,17.02
2023-03-08T19:54:06.013Z,16.85
2023-03-08T20:21:04.361Z,11.63
2023-03-08T20:23:31.849Z,11.25
2023-03-08T20:26:02.560Z,15.75
2023-03-08T20:28:29.620Z,12.90
2023-03-08T21:05:57.778Z,12.45
2023-03-08T21:08:26.892Z,12.60
2023-03-08T21:10:58.658Z,12.63
2023-03-08T21:13:37.675Z,12.32
2023-03-08T21:16:14.156Z,12.48
2023-03-08T21:18:46.097Z,10.70
2023-03-08T21:21:53.594Z,13.65
2023-03-08T21:24:22.835Z,11.25
2023-03-08T21:26:50.220Z,10.13
2023-03-08T21:29:21.126Z,12.00
2023-03-08T21:31:52.846Z,11.43
2023-03-08T21:34:23.104Z,12.35
2023-03-08T21:36:50.292Z,11.38
2023-03-08T21:39:19.218Z,11.48
2023-03-08T21:41:49.333Z,11.60
2023-03-08T21:44:19.798Z,12.13
2023-03-08T21:46:47.933Z,15.27
2023-03-08T21:49:22.048Z,11.73
2023-03-08T21:51:49.606Z,13.10
2023-03-08T21:54:17.524Z,12.80
2023-03-08T21:56:44.819Z,13.65
2023-03-08T21:59:14.226Z,13.05
2023-03-08T22:01:53.717Z,12.70
2023-03-08T22:04:20.483Z,13.43
2023-03-08T22:06:52.425Z,13.88
2023-03-08T22:09:19.151Z,16.25
2023-03-08T22:11:45.911Z,16.83
2023-03-08T22:14:12.673Z,15.38
2023-03-08T22:16:48.494Z,18.05
2023-03-08T22:19:18.136Z,16.17
2023-03-08T22:21:47.740Z,17.67
2023-03-08T22:24:14.412Z,16.42
2023-03-08T22:26:44.392Z,15.15
2023-03-08T22:29:11.171Z,14.15
2023-03-08T22:31:37.938Z,13.88
2023-03-08T22:34:07.681Z,16.63
2023-03-08T22:36:34.937Z,12.23
2023-03-08T22:39:01.730Z,14.18
2023-03-08T22:41:31.613Z,14.52
2023-03-08T22:44:04.000Z,16.75
2023-03-08T22:46:36.572Z,18.50
2023-03-08T22:49:08.548Z,16.50
2023-03-08T22:51:36.453Z,16.63
2023-03-08T22:54:05.627Z,14.57
2023-03-08T22:56:35.823Z,18.35
2023-03-08T22:59:06.160Z,16.55
2023-03-08T23:01:33.921Z,20.48
2023-03-08T23:04:04.202Z,14.43
2023-03-08T23:06:32.735Z,16.27
2023-03-08T23:09:07.180Z,14.98
2023-03-08T23:11:37.374Z,19.08
2023-03-08T23:14:08.052Z,14.55
2023-03-08T23:16:44.054Z,14.93
2023-03-08T23:19:18.514Z,13.80
2023-03-08T23:21:46.189Z,12.07
2023-03-08T23:24:15.239Z,12.13
2023-03-08T23:26:48.754Z,14.23
2023-03-08T23:29:21.674Z,12.05
2023-03-08T23:31:48.598Z,11.85
2023-03-08T23:34:15.446Z,16.23
2023-03-08T23:36:47.598Z,11.60
2023-03-08T23:39:14.327Z,12.57
2023-03-08T23:41:45.122Z,11.93
2023-03-08T23:44:12.785Z,14.25
2023-03-08T23:46:42.243Z,17.70
2023-03-08T23:49:10.413Z,13.05
2023-03-08T23:51:37.216Z,15.00
2023-03-08T23:54:08.448Z,15.57
2023-03-08T23:56:41.706Z,14.25
2023-03-08T23:59:23.680Z,14.30
